sensor_id;sensor_type;location;lat;lon;timestamp;P1;durP1;ratioP1;P2;durP2;ratioP2
31308;SDS011;17936;52.446;10.840;2022-09-12T00:01:26;3.53;;;2.13;;
31308;SDS011;17936;52.446;10.840;2022-09-12T00:03:52;2.80;;;2.50;;
31308;SDS011;17936;52.446;10.840;2022-09-12T00:06:21;3.78;;;2.40;;
31308;SDS011;17936;52.446;10.840;2022-09-12T00:08:49;2.83;;;2.08;;
31308;SDS011;17936;52.446;10.840;2022-09-12T00:11:17;3.65;;;2.30;;
31308;SDS011;17936;52.446;10.840;2022-09-12T00:13:43;3.13;;;2.45;;
31308;SDS011;17936;52.446;10.840;2022-09-12T00:16:18;3.42;;;2.30;;
31308;SDS011;17936;52.446;10.840;2022-09-12T00:18:45;2.00;;;1.67;;
31308;SDS011;17936;52.446;10.840;2022-09-12T00:21:11;2.03;;;1.60;;
31308;SDS011;17936;52.446;10.840;2022-09-12T00:23:37;1.70;;;1.40;;
31308;SDS011;17936;52.446;10.840;2022-09-12T00:26:04;1.83;;;1.40;;
31308;SDS011;17936;52.446;10.840;2022-09-12T00:28:32;2.33;;;1.67;;
31308;SDS011;17936;52.446;10.840;2022-09-12T00:30:58;1.80;;;1.50;;
31308;SDS011;17936;52.446;10.840;2022-09-12T00:33:24;1.95;;;1.30;;
31308;SDS011;17936;52.446;10.840;2022-09-12T00:35:50;2.25;;;1.35;;
31308;SDS011;17936;52.446;10.840;2022-09-12T00:38:17;1.58;;;1.27;;
31308;SDS011;17936;52.446;10.840;2022-09-12T00:40:43;2.50;;;1.20;;
31308;SDS011;17936;52.446;10.840;2022-09-12T00:43:11;6.63;;;1.20;;
31308;SDS011;17936;52.446;10.840;2022-09-12T00:45:39;1.80;;;1.40;;
31308;SDS011;17936;52.446;10.840;2022-09-12T00:48:07;2.17;;;1.27;;
31308;SDS011;17936;52.446;10.840;2022-09-12T00:50:43;2.42;;;1.42;;
31308;SDS011;17936;52.446;10.840;2022-09-12T00:53:09;6.35;;;1.55;;
31308;SDS011;17936;52.446;10.840;2022-09-12T00:55:35;4.13;;;1.40;;
31308;SDS011;17936;52.446;10.840;2022-09-12T00:58:09;1.92;;;1.52;;
31308;SDS011;17936;52.446;10.840;2022-09-12T01:01:08;1.30;;;1.20;;
31308;SDS011;17936;52.446;10.840;2022-09-12T01:03:34;2.70;;;1.63;;
31308;SDS011;17936;52.446;10.840;2022-09-12T01:06:07;3.45;;;1.70;;
31308;SDS011;17936;52.446;10.840;2022-09-12T01:08:46;2.53;;;1.80;;
31308;SDS011;17936;52.446;10.840;2022-09-12T01:11:13;2.50;;;1.70;;
31308;SDS011;17936;52.446;10.840;2022-09-12T01:13:39;4.07;;;2.03;;
31308;SDS011;17936;52.446;10.840;2022-09-12T01:16:05;2.25;;;1.88;;
31308;SDS011;17936;52.446;10.840;2022-09-12T01:18:41;1.88;;;1.55;;
31308;SDS011;17936;52.446;10.840;2022-09-12T01:24:29;2.78;;;2.05;;
31308;SDS011;17936;52.446;10.840;2022-09-12T01:27:15;2.33;;;1.90;;
31308;SDS011;17936;52.446;10.840;2022-09-12T01:29:57;2.85;;;2.00;;
31308;SDS011;17936;52.446;10.840;2022-09-12T01:32:28;5.43;;;2.08;;
31308;SDS011;17936;52.446;10.840;2022-09-12T01:40:11;3.95;;;2.40;;
31308;SDS011;17936;52.446;10.840;2022-09-12T01:42:48;6.57;;;2.40;;
31308;SDS011;17936;52.446;10.840;2022-09-12T01:45:38;4.55;;;2.75;;
31308;SDS011;17936;52.446;10.840;2022-09-12T01:48:15;8.13;;;3.08;;
31308;SDS011;17936;52.446;10.840;2022-09-12T01:50:44;4.20;;;3.08;;
31308;SDS011;17936;52.446;10.840;2022-09-12T01:53:33;5.28;;;2.83;;
31308;SDS011;17936;52.446;10.840;2022-09-12T01:56:06;7.07;;;3.50;;
31308;SDS011;17936;52.446;10.840;2022-09-12T01:59:18;6.03;;;3.20;;
31308;SDS011;17936;52.446;10.840;2022-09-12T02:01:35;6.78;;;2.97;;
31308;SDS011;17936;52.446;10.840;2022-09-12T02:07:00;7.45;;;5.05;;
31308;SDS011;17936;52.446;10.840;2022-09-12T02:09:34;9.30;;;5.15;;
31308;SDS011;17936;52.446;10.840;2022-09-12T02:12:05;10.52;;;5.68;;
31308;SDS011;17936;52.446;10.840;2022-09-12T02:14:37;11.23;;;6.25;;
31308;SDS011;17936;52.446;10.840;2022-09-12T02:17:10;11.20;;;6.55;;
31308;SDS011;17936;52.446;10.840;2022-09-12T02:19:43;11.25;;;7.00;;
31308;SDS011;17936;52.446;10.840;2022-09-12T02:22:14;10.98;;;6.70;;
31308;SDS011;17936;52.446;10.840;2022-09-12T02:24:45;9.70;;;6.55;;
31308;SDS011;17936;52.446;10.840;2022-09-12T02:27:15;12.15;;;7.05;;
31308;SDS011;17936;52.446;10.840;2022-09-12T02:29:45;12.07;;;6.78;;
31308;SDS011;17936;52.446;10.840;2022-09-12T02:32:21;11.40;;;6.90;;
31308;SDS011;17936;52.446;10.840;2022-09-12T02:34:55;11.63;;;5.78;;
31308;SDS011;17936;52.446;10.840;2022-09-12T02:37:42;11.80;;;5.70;;
31308;SDS011;17936;52.446;10.840;2022-09-12T02:40:31;9.45;;;5.38;;
31308;SDS011;17936;52.446;10.840;2022-09-12T02:42:57;9.20;;;5.93;;
31308;SDS011;17936;52.446;10.840;2022-09-12T02:45:24;8.60;;;5.40;;
31308;SDS011;17936;52.446;10.840;2022-09-12T02:47:50;13.50;;;5.82;;
31308;SDS011;17936;52.446;10.840;2022-09-12T02:50:20;12.18;;;6.10;;
31308;SDS011;17936;52.446;10.840;2022-09-12T02:52:45;10.90;;;5.90;;
31308;SDS011;17936;52.446;10.840;2022-09-12T02:55:11;9.05;;;6.00;;
31308;SDS011;17936;52.446;10.840;2022-09-12T02:57:38;12.32;;;6.55;;
31308;SDS011;17936;52.446;10.840;2022-09-12T03:00:04;11.02;;;6.22;;
31308;SDS011;17936;52.446;10.840;2022-09-12T03:02:34;11.55;;;6.80;;
31308;SDS011;17936;52.446;10.840;2022-09-12T03:05:21;20.33;;;7.20;;
31308;SDS011;17936;52.446;10.840;2022-09-12T03:13:18;8.40;;;5.72;;
31308;SDS011;17936;52.446;10.840;2022-09-12T03:15:59;11.80;;;5.70;;
31308;SDS011;17936;52.446;10.840;2022-09-12T03:18:40;8.63;;;4.47;;
31308;SDS011;17936;52.446;10.840;2022-09-12T03:26:25;4.00;;;2.80;;
31308;SDS011;17936;52.446;10.840;2022-09-12T03:29:08;3.53;;;2.35;;
31308;SDS011;17936;52.446;10.840;2022-09-12T03:31:35;4.28;;;2.65;;
31308;SDS011;17936;52.446;10.840;2022-09-12T03:34:03;3.17;;;2.20;;
31308;SDS011;17936;52.446;10.840;2022-09-12T03:36:29;2.85;;;1.80;;
31308;SDS011;17936;52.446;10.840;2022-09-12T03:38:55;2.97;;;1.95;;
31308;SDS011;17936;52.446;10.840;2022-09-12T03:41:21;3.35;;;2.03;;
31308;SDS011;17936;52.446;10.840;2022-09-12T03:43:47;4.95;;;2.38;;
31308;SDS011;17936;52.446;10.840;2022-09-12T03:46:12;4.85;;;2.75;;
31308;SDS011;17936;52.446;10.840;2022-09-12T03:48:38;4.45;;;2.75;;
31308;SDS011;17936;52.446;10.840;2022-09-12T03:51:06;4.63;;;2.83;;
31308;SDS011;17936;52.446;10.840;2022-09-12T03:53:33;4.10;;;2.45;;
31308;SDS011;17936;52.446;10.840;2022-09-12T03:55:59;4.38;;;2.65;;
31308;SDS011;17936;52.446;10.840;2022-09-12T03:58:28;5.10;;;2.80;;
31308;SDS011;17936;52.446;10.840;2022-09-12T04:00:54;8.25;;;3.90;;
31308;SDS011;17936;52.446;10.840;2022-09-12T04:03:20;8.43;;;4.30;;
31308;SDS011;17936;52.446;10.840;2022-09-12T04:05:45;8.38;;;3.95;;
31308;SDS011;17936;52.446;10.840;2022-09-12T04:08:11;14.43;;;4.63;;
31308;SDS011;17936;52.446;10.840;2022-09-12T04:10:37;9.38;;;4.95;;
31308;SDS011;17936;52.446;10.840;2022-09-12T04:13:02;10.30;;;5.15;;
31308;SDS011;17936;52.446;10.840;2022-09-12T04:15:28;8.43;;;4.57;;
31308;SDS011;17936;52.446;10.840;2022-09-12T04:17:53;9.13;;;4.97;;
31308;SDS011;17936;52.446;10.840;2022-09-12T04:20:19;8.57;;;4.57;;
31308;SDS011;17936;52.446;10.840;2022-09-12T04:22:44;7.53;;;4.50;;
31308;SDS011;17936;52.446;10.840;2022-09-12T04:25:10;7.72;;;4.38;;
31308;SDS011;17936;52.446;10.840;2022-09-12T04:27:37;7.05;;;3.90;;
31308;SDS011;17936;52.446;10.840;2022-09-12T04:30:03;6.65;;;3.95;;
31308;SDS011;17936;52.446;10.840;2022-09-12T04:32:29;6.32;;;3.63;;
31308;SDS011;17936;52.446;10.840;2022-09-12T04:34:55;4.60;;;3.08;;
31308;SDS011;17936;52.446;10.840;2022-09-12T04:37:21;5.20;;;2.92;;
31308;SDS011;17936;52.446;10.840;2022-09-12T04:39:47;5.63;;;2.42;;
31308;SDS011;17936;52.446;10.840;2022-09-12T04:42:13;6.72;;;3.08;;
31308;SDS011;17936;52.446;10.840;2022-09-12T04:44:39;4.05;;;2.70;;
31308;SDS011;17936;52.446;10.840;2022-09-12T04:47:05;4.43;;;2.97;;
31308;SDS011;17936;52.446;10.840;2022-09-12T04:49:30;5.13;;;2.75;;
31308;SDS011;17936;52.446;10.840;2022-09-12T04:51:56;6.68;;;2.72;;
31308;SDS011;17936;52.446;10.840;2022-09-12T04:54:21;3.90;;;2.53;;
31308;SDS011;17936;52.446;10.840;2022-09-12T04:56:47;5.03;;;2.83;;
31308;SDS011;17936;52.446;10.840;2022-09-12T04:59:14;8.05;;;3.08;;
31308;SDS011;17936;52.446;10.840;2022-09-12T05:01:42;5.88;;;2.70;;
31308;SDS011;17936;52.446;10.840;2022-09-12T05:04:08;4.80;;;2.88;;
31308;SDS011;17936;52.446;10.840;2022-09-12T05:06:35;5.30;;;2.65;;
31308;SDS011;17936;52.446;10.840;2022-09-12T05:09:02;6.95;;;2.80;;
31308;SDS011;17936;52.446;10.840;2022-09-12T05:11:30;5.65;;;2.80;;
31308;SDS011;17936;52.446;10.840;2022-09-12T05:13:57;5.25;;;3.03;;
31308;SDS011;17936;52.446;10.840;2022-09-12T05:16:23;5.28;;;2.90;;
31308;SDS011;17936;52.446;10.840;2022-09-12T05:18:50;5.43;;;3.15;;
31308;SDS011;17936;52.446;10.840;2022-09-12T05:21:17;6.82;;;3.70;;
31308;SDS011;17936;52.446;10.840;2022-09-12T05:23:45;6.30;;;3.20;;
31308;SDS011;17936;52.446;10.840;2022-09-12T05:26:14;7.18;;;3.53;;
31308;SDS011;17936;52.446;10.840;2022-09-12T05:28:40;6.97;;;3.78;;
31308;SDS011;17936;52.446;10.840;2022-09-12T05:31:09;6.55;;;3.80;;
31308;SDS011;17936;52.446;10.840;2022-09-12T05:33:37;5.00;;;3.13;;
31308;SDS011;17936;52.446;10.840;2022-09-12T05:36:04;6.10;;;2.85;;
31308;SDS011;17936;52.446;10.840;2022-09-12T05:38:33;5.90;;;3.28;;
31308;SDS011;17936;52.446;10.840;2022-09-12T05:41:03;5.22;;;3.22;;
31308;SDS011;17936;52.446;10.840;2022-09-12T05:43:30;4.88;;;3.38;;
31308;SDS011;17936;52.446;10.840;2022-09-12T05:46:03;5.82;;;3.72;;
31308;SDS011;17936;52.446;10.840;2022-09-12T05:48:32;6.65;;;4.00;;
31308;SDS011;17936;52.446;10.840;2022-09-12T05:51:00;6.82;;;4.93;;
31308;SDS011;17936;52.446;10.840;2022-09-12T05:53:27;6.38;;;4.45;;
31308;SDS011;17936;52.446;10.840;2022-09-12T05:56:09;8.30;;;4.82;;
31308;SDS011;17936;52.446;10.840;2022-09-12T05:58:41;7.57;;;4.82;;
31308;SDS011;17936;52.446;10.840;2022-09-12T06:01:12;11.90;;;5.30;;
31308;SDS011;17936;52.446;10.840;2022-09-12T06:03:40;5.73;;;4.37;;
31308;SDS011;17936;52.446;10.840;2022-09-12T06:06:08;7.03;;;4.47;;
31308;SDS011;17936;52.446;10.840;2022-09-12T06:08:37;8.00;;;4.75;;
31308;SDS011;17936;52.446;10.840;2022-09-12T06:11:04;9.63;;;4.95;;
31308;SDS011;17936;52.446;10.840;2022-09-12T06:13:31;6.07;;;4.05;;
31308;SDS011;17936;52.446;10.840;2022-09-12T06:16:03;5.60;;;4.20;;
31308;SDS011;17936;52.446;10.840;2022-09-12T06:18:30;5.53;;;3.80;;
31308;SDS011;17936;52.446;10.840;2022-09-12T06:20:57;5.53;;;3.80;;
31308;SDS011;17936;52.446;10.840;2022-09-12T06:23:26;5.93;;;4.18;;
31308;SDS011;17936;52.446;10.840;2022-09-12T06:25:52;5.95;;;3.70;;
31308;SDS011;17936;52.446;10.840;2022-09-12T06:28:18;7.47;;;4.95;;
31308;SDS011;17936;52.446;10.840;2022-09-12T06:30:43;7.25;;;4.57;;
31308;SDS011;17936;52.446;10.840;2022-09-12T06:33:09;7.00;;;4.78;;
31308;SDS011;17936;52.446;10.840;2022-09-12T06:35:35;7.45;;;4.75;;
31308;SDS011;17936;52.446;10.840;2022-09-12T06:38:01;8.60;;;5.47;;
31308;SDS011;17936;52.446;10.840;2022-09-12T06:40:27;8.73;;;5.32;;
31308;SDS011;17936;52.446;10.840;2022-09-12T06:42:53;9.93;;;5.82;;
31308;SDS011;17936;52.446;10.840;2022-09-12T06:45:19;11.75;;;5.60;;
31308;SDS011;17936;52.446;10.840;2022-09-12T06:47:44;9.38;;;5.72;;
31308;SDS011;17936;52.446;10.840;2022-09-12T06:50:10;9.95;;;6.10;;
31308;SDS011;17936;52.446;10.840;2022-09-12T06:52:36;8.85;;;6.03;;
31308;SDS011;17936;52.446;10.840;2022-09-12T06:55:01;9.38;;;6.25;;
31308;SDS011;17936;52.446;10.840;2022-09-12T06:57:27;11.30;;;6.47;;
31308;SDS011;17936;52.446;10.840;2022-09-12T06:59:54;13.75;;;6.22;;
31308;SDS011;17936;52.446;10.840;2022-09-12T07:02:20;10.07;;;6.00;;
31308;SDS011;17936;52.446;10.840;2022-09-12T07:04:45;12.40;;;6.10;;
31308;SDS011;17936;52.446;10.840;2022-09-12T07:07:11;9.77;;;6.57;;
31308;SDS011;17936;52.446;10.840;2022-09-12T07:09:36;10.75;;;5.95;;
31308;SDS011;17936;52.446;10.840;2022-09-12T07:12:02;10.48;;;6.68;;
31308;SDS011;17936;52.446;10.840;2022-09-12T07:14:28;9.85;;;6.38;;
31308;SDS011;17936;52.446;10.840;2022-09-12T07:16:54;12.60;;;7.38;;
31308;SDS011;17936;52.446;10.840;2022-09-12T07:19:20;10.98;;;6.75;;
31308;SDS011;17936;52.446;10.840;2022-09-12T07:21:45;12.90;;;6.85;;
31308;SDS011;17936;52.446;10.840;2022-09-12T07:24:10;12.40;;;6.40;;
31308;SDS011;17936;52.446;10.840;2022-09-12T07:26:36;13.73;;;6.97;;
31308;SDS011;17936;52.446;10.840;2022-09-12T07:29:03;9.73;;;6.40;;
31308;SDS011;17936;52.446;10.840;2022-09-12T07:31:29;13.63;;;6.55;;
31308;SDS011;17936;52.446;10.840;2022-09-12T07:33:55;10.15;;;5.88;;
31308;SDS011;17936;52.446;10.840;2022-09-12T07:36:21;8.95;;;5.88;;
31308;SDS011;17936;52.446;10.840;2022-09-12T07:38:53;9.77;;;6.15;;
31308;SDS011;17936;52.446;10.840;2022-09-12T07:41:23;11.30;;;6.25;;
31308;SDS011;17936;52.446;10.840;2022-09-12T07:43:51;13.00;;;6.25;;
31308;SDS011;17936;52.446;10.840;2022-09-12T07:46:18;12.00;;;5.38;;
31308;SDS011;17936;52.446;10.840;2022-09-12T07:48:43;13.07;;;6.32;;
31308;SDS011;17936;52.446;10.840;2022-09-12T07:51:12;10.25;;;5.88;;
31308;SDS011;17936;52.446;10.840;2022-09-12T07:53:39;10.52;;;5.95;;
31308;SDS011;17936;52.446;10.840;2022-09-12T07:56:07;14.15;;;7.53;;
31308;SDS011;17936;52.446;10.840;2022-09-12T07:58:34;10.63;;;6.50;;
31308;SDS011;17936;52.446;10.840;2022-09-12T08:01:02;16.17;;;7.70;;
31308;SDS011;17936;52.446;10.840;2022-09-12T08:03:37;9.88;;;6.40;;
31308;SDS011;17936;52.446;10.840;2022-09-12T08:06:07;11.98;;;6.10;;
31308;SDS011;17936;52.446;10.840;2022-09-12T08:08:41;15.90;;;7.10;;
31308;SDS011;17936;52.446;10.840;2022-09-12T08:11:08;12.60;;;6.95;;
31308;SDS011;17936;52.446;10.840;2022-09-12T08:13:36;13.85;;;7.57;;
31308;SDS011;17936;52.446;10.840;2022-09-12T08:16:04;14.07;;;7.75;;
31308;SDS011;17936;52.446;10.840;2022-09-12T08:18:31;12.63;;;6.35;;
31308;SDS011;17936;52.446;10.840;2022-09-12T08:20:58;12.02;;;6.97;;
31308;SDS011;17936;52.446;10.840;2022-09-12T08:23:26;12.30;;;6.60;;
31308;SDS011;17936;52.446;10.840;2022-09-12T08:25:56;10.77;;;6.50;;
31308;SDS011;17936;52.446;10.840;2022-09-12T08:28:23;10.57;;;6.45;;
31308;SDS011;17936;52.446;10.840;2022-09-12T08:30:50;15.13;;;6.80;;
31308;SDS011;17936;52.446;10.840;2022-09-12T08:33:15;11.10;;;6.63;;
31308;SDS011;17936;52.446;10.840;2022-09-12T08:35:41;9.75;;;6.25;;
31308;SDS011;17936;52.446;10.840;2022-09-12T08:38:06;9.88;;;6.70;;
31308;SDS011;17936;52.446;10.840;2022-09-12T08:40:32;15.82;;;6.88;;
31308;SDS011;17936;52.446;10.840;2022-09-12T08:43:21;8.65;;;6.20;;
31308;SDS011;17936;52.446;10.840;2022-09-12T08:46:07;10.15;;;6.95;;
31308;SDS011;17936;52.446;10.840;2022-09-12T08:48:41;12.18;;;6.22;;
31308;SDS011;17936;52.446;10.840;2022-09-12T08:51:09;12.60;;;5.88;;
31308;SDS011;17936;52.446;10.840;2022-09-12T08:53:38;10.32;;;6.55;;
31308;SDS011;17936;52.446;10.840;2022-09-12T08:56:06;9.85;;;5.72;;
31308;SDS011;17936;52.446;10.840;2022-09-12T08:58:37;9.98;;;5.47;;
31308;SDS011;17936;52.446;10.840;2022-09-12T09:03:48;9.05;;;5.55;;
31308;SDS011;17936;52.446;10.840;2022-09-12T09:12:55;6.85;;;4.60;;
31308;SDS011;17936;52.446;10.840;2022-09-12T09:18:44;4.40;;;3.15;;
31308;SDS011;17936;52.446;10.840;2022-09-12T09:21:19;4.93;;;2.67;;
31308;SDS011;17936;52.446;10.840;2022-09-12T09:23:52;7.93;;;2.72;;
31308;SDS011;17936;52.446;10.840;2022-09-12T09:26:29;5.97;;;3.28;;
31308;SDS011;17936;52.446;10.840;2022-09-12T09:29:39;8.15;;;4.13;;
31308;SDS011;17936;52.446;10.840;2022-09-12T09:32:14;7.82;;;4.35;;
31308;SDS011;17936;52.446;10.840;2022-09-12T09:34:48;8.75;;;3.80;;
31308;SDS011;17936;52.446;10.840;2022-09-12T09:37:15;4.53;;;2.92;;
31308;SDS011;17936;52.446;10.840;2022-09-12T09:40:16;6.47;;;3.47;;
31308;SDS011;17936;52.446;10.840;2022-09-12T09:45:37;2.92;;;2.40;;
31308;SDS011;17936;52.446;10.840;2022-09-12T09:48:16;8.52;;;2.90;;
31308;SDS011;17936;52.446;10.840;2022-09-12T09:50:41;6.63;;;2.95;;
31308;SDS011;17936;52.446;10.840;2022-09-12T09:53:08;6.97;;;2.92;;
31308;SDS011;17936;52.446;10.840;2022-09-12T09:55:46;6.15;;;3.08;;
31308;SDS011;17936;52.446;10.840;2022-09-12T09:58:26;4.57;;;2.53;;
31308;SDS011;17936;52.446;10.840;2022-09-12T10:01:14;5.05;;;2.50;;
31308;SDS011;17936;52.446;10.840;2022-09-12T10:03:46;5.45;;;2.45;;
31308;SDS011;17936;52.446;10.840;2022-09-12T10:11:51;3.25;;;1.83;;
31308;SDS011;17936;52.446;10.840;2022-09-12T10:14:35;3.25;;;1.85;;
31308;SDS011;17936;52.446;10.840;2022-09-12T10:17:21;5.18;;;2.28;;
31308;SDS011;17936;52.446;10.840;2022-09-12T10:19:49;6.82;;;2.67;;
31308;SDS011;17936;52.446;10.840;2022-09-12T10:22:16;3.33;;;2.20;;
31308;SDS011;17936;52.446;10.840;2022-09-12T10:24:52;4.70;;;2.28;;
31308;SDS011;17936;52.446;10.840;2022-09-12T10:27:25;2.97;;;2.00;;
31308;SDS011;17936;52.446;10.840;2022-09-12T10:32:39;3.13;;;2.05;;
31308;SDS011;17936;52.446;10.840;2022-09-12T10:35:15;3.08;;;2.20;;
31308;SDS011;17936;52.446;10.840;2022-09-12T10:37:53;3.77;;;2.23;;
31308;SDS011;17936;52.446;10.840;2022-09-12T10:40:23;3.40;;;1.80;;
31308;SDS011;17936;52.446;10.840;2022-09-12T10:42:52;3.65;;;1.80;;
31308;SDS011;17936;52.446;10.840;2022-09-12T10:45:33;4.13;;;2.00;;
31308;SDS011;17936;52.446;10.840;2022-09-12T10:48:00;3.45;;;1.83;;
31308;SDS011;17936;52.446;10.840;2022-09-12T10:50:45;2.47;;;1.60;;
31308;SDS011;17936;52.446;10.840;2022-09-12T10:53:19;2.63;;;1.83;;
31308;SDS011;17936;52.446;10.840;2022-09-12T11:01:00;3.92;;;1.80;;
31308;SDS011;17936;52.446;10.840;2022-09-12T11:15:22;2.97;;;1.58;;
31308;SDS011;17936;52.446;10.840;2022-09-12T11:26:54;2.42;;;1.48;;
31308;SDS011;17936;52.446;10.840;2022-09-12T11:29:57;2.95;;;1.58;;
31308;SDS011;17936;52.446;10.840;2022-09-12T11:32:38;2.58;;;1.42;;
31308;SDS011;17936;52.446;10.840;2022-09-12T11:35:38;1.90;;;1.35;;
31308;SDS011;17936;52.446;10.840;2022-09-12T11:40:48;2.58;;;1.25;;
31308;SDS011;17936;52.446;10.840;2022-09-12T11:43:36;3.00;;;1.60;;
31308;SDS011;17936;52.446;10.840;2022-09-12T11:46:20;2.55;;;1.70;;
31308;SDS011;17936;52.446;10.840;2022-09-12T11:48:56;1.85;;;1.30;;
31308;SDS011;17936;52.446;10.840;2022-09-12T11:51:36;1.85;;;1.20;;
31308;SDS011;17936;52.446;10.840;2022-09-12T11:54:05;4.28;;;1.70;;
31308;SDS011;17936;52.446;10.840;2022-09-12T11:56:46;2.63;;;1.30;;
31308;SDS011;17936;52.446;10.840;2022-09-12T11:59:28;3.38;;;1.60;;
31308;SDS011;17936;52.446;10.840;2022-09-12T12:02:25;3.55;;;1.60;;
31308;SDS011;17936;52.446;10.840;2022-09-12T12:07:51;2.53;;;1.67;;
31308;SDS011;17936;52.446;10.840;2022-09-12T12:10:25;3.37;;;1.73;;
31308;SDS011;17936;52.446;10.840;2022-09-12T12:13:00;3.67;;;1.67;;
31308;SDS011;17936;52.446;10.840;2022-09-12T12:15:29;3.78;;;1.95;;
31308;SDS011;17936;52.446;10.840;2022-09-12T12:18:02;3.63;;;1.67;;
31308;SDS011;17936;52.446;10.840;2022-09-12T12:20:39;2.10;;;1.40;;
31308;SDS011;17936;52.446;10.840;2022-09-12T12:23:05;4.35;;;1.95;;
31308;SDS011;17936;52.446;10.840;2022-09-12T12:25:38;4.47;;;1.70;;
31308;SDS011;17936;52.446;10.840;2022-09-12T12:28:05;2.53;;;1.73;;
31308;SDS011;17936;52.446;10.840;2022-09-12T12:38:00;2.28;;;1.58;;
31308;SDS011;17936;52.446;10.840;2022-09-12T12:40:28;2.72;;;1.45;;
31308;SDS011;17936;52.446;10.840;2022-09-12T12:52:57;2.55;;;1.60;;
31308;SDS011;17936;52.446;10.840;2022-09-12T12:55:52;7.22;;;1.88;;
31308;SDS011;17936;52.446;10.840;2022-09-12T12:58:27;5.63;;;1.95;;
31308;SDS011;17936;52.446;10.840;2022-09-12T13:01:16;3.17;;;1.70;;
31308;SDS011;17936;52.446;10.840;2022-09-12T13:06:31;3.63;;;1.77;;
31308;SDS011;17936;52.446;10.840;2022-09-12T13:09:03;2.65;;;1.50;;
31308;SDS011;17936;52.446;10.840;2022-09-12T13:11:40;3.10;;;1.45;;
31308;SDS011;17936;52.446;10.840;2022-09-12T13:14:07;4.32;;;1.80;;
31308;SDS011;17936;52.446;10.840;2022-09-12T13:16:59;4.18;;;1.27;;
31308;SDS011;17936;52.446;10.840;2022-09-12T13:19:30;6.53;;;1.73;;
31308;SDS011;17936;52.446;10.840;2022-09-12T13:22:01;2.00;;;1.40;;
31308;SDS011;17936;52.446;10.840;2022-09-12T13:24:28;2.85;;;1.52;;
31308;SDS011;17936;52.446;10.840;2022-09-12T13:26:54;3.97;;;1.80;;
31308;SDS011;17936;52.446;10.840;2022-09-12T13:29:22;1.58;;;1.08;;
31308;SDS011;17936;52.446;10.840;2022-09-12T13:31:53;3.78;;;1.40;;
31308;SDS011;17936;52.446;10.840;2022-09-12T13:34:25;2.05;;;1.45;;
31308;SDS011;17936;52.446;10.840;2022-09-12T13:37:05;2.47;;;1.30;;
31308;SDS011;17936;52.446;10.840;2022-09-12T13:40:16;6.28;;;1.60;;
31308;SDS011;17936;52.446;10.840;2022-09-12T13:43:12;2.42;;;1.55;;
31308;SDS011;17936;52.446;10.840;2022-09-12T13:45:40;1.85;;;1.20;;
31308;SDS011;17936;52.446;10.840;2022-09-12T13:48:19;2.35;;;1.50;;
31308;SDS011;17936;52.446;10.840;2022-09-12T13:50:49;2.20;;;1.30;;
31308;SDS011;17936;52.446;10.840;2022-09-12T13:53:21;3.55;;;1.50;;
31308;SDS011;17936;52.446;10.840;2022-09-12T13:55:50;2.67;;;1.45;;
31308;SDS011;17936;52.446;10.840;2022-09-12T13:58:26;4.25;;;1.30;;
31308;SDS011;17936;52.446;10.840;2022-09-12T14:01:00;4.15;;;1.70;;
31308;SDS011;17936;52.446;10.840;2022-09-12T14:06:37;2.42;;;1.50;;
31308;SDS011;17936;52.446;10.840;2022-09-12T14:09:23;2.50;;;1.50;;
31308;SDS011;17936;52.446;10.840;2022-09-12T14:11:52;2.00;;;1.40;;
31308;SDS011;17936;52.446;10.840;2022-09-12T14:14:39;3.33;;;1.15;;
31308;SDS011;17936;52.446;10.840;2022-09-12T14:17:17;2.67;;;1.52;;
31308;SDS011;17936;52.446;10.840;2022-09-12T14:19:48;2.55;;;1.40;;
31308;SDS011;17936;52.446;10.840;2022-09-12T14:22:14;4.45;;;1.70;;
31308;SDS011;17936;52.446;10.840;2022-09-12T14:24:51;1.70;;;1.20;;
31308;SDS011;17936;52.446;10.840;2022-09-12T14:27:19;5.30;;;1.67;;
31308;SDS011;17936;52.446;10.840;2022-09-12T14:30:13;2.90;;;1.80;;
31308;SDS011;17936;52.446;10.840;2022-09-12T14:35:36;2.63;;;1.38;;
31308;SDS011;17936;52.446;10.840;2022-09-12T14:38:05;2.47;;;1.40;;
31308;SDS011;17936;52.446;10.840;2022-09-12T14:40:39;4.32;;;1.52;;
31308;SDS011;17936;52.446;10.840;2022-09-12T14:43:15;3.60;;;1.60;;
31308;SDS011;17936;52.446;10.840;2022-09-12T14:45:49;2.40;;;1.15;;
31308;SDS011;17936;52.446;10.840;2022-09-12T14:48:23;5.70;;;1.65;;
31308;SDS011;17936;52.446;10.840;2022-09-12T14:50:49;2.95;;;1.48;;
31308;SDS011;17936;52.446;10.840;2022-09-12T14:55:52;3.25;;;1.25;;
31308;SDS011;17936;52.446;10.840;2022-09-12T14:58:24;2.92;;;1.38;;
31308;SDS011;17936;52.446;10.840;2022-09-12T15:03:29;3.45;;;1.45;;
31308;SDS011;17936;52.446;10.840;2022-09-12T15:06:03;3.25;;;1.30;;
31308;SDS011;17936;52.446;10.840;2022-09-12T15:08:31;2.92;;;1.27;;
31308;SDS011;17936;52.446;10.840;2022-09-12T15:10:57;4.93;;;1.60;;
31308;SDS011;17936;52.446;10.840;2022-09-12T15:13:24;1.88;;;1.30;;
31308;SDS011;17936;52.446;10.840;2022-09-12T15:15:53;4.10;;;1.30;;
31308;SDS011;17936;52.446;10.840;2022-09-12T15:18:20;3.28;;;1.40;;
31308;SDS011;17936;52.446;10.840;2022-09-12T15:20:49;1.67;;;1.05;;
31308;SDS011;17936;52.446;10.840;2022-09-12T15:26:08;2.42;;;1.30;;
31308;SDS011;17936;52.446;10.840;2022-09-12T15:28:36;2.67;;;1.30;;
31308;SDS011;17936;52.446;10.840;2022-09-12T15:33:48;1.98;;;1.00;;
31308;SDS011;17936;52.446;10.840;2022-09-12T15:36:14;2.45;;;1.33;;
31308;SDS011;17936;52.446;10.840;2022-09-12T15:38:42;1.73;;;1.02;;
31308;SDS011;17936;52.446;10.840;2022-09-12T15:41:09;1.67;;;1.13;;
31308;SDS011;17936;52.446;10.840;2022-09-12T15:43:55;2.30;;;1.30;;
31308;SDS011;17936;52.446;10.840;2022-09-12T15:46:21;5.47;;;1.13;;
31308;SDS011;17936;52.446;10.840;2022-09-12T15:48:47;1.23;;;1.05;;
31308;SDS011;17936;52.446;10.840;2022-09-12T15:51:13;2.42;;;1.15;;
31308;SDS011;17936;52.446;10.840;2022-09-12T15:53:40;2.03;;;1.15;;
31308;SDS011;17936;52.446;10.840;2022-09-12T15:56:06;1.95;;;1.00;;
31308;SDS011;17936;52.446;10.840;2022-09-12T15:58:31;2.05;;;1.30;;
31308;SDS011;17936;52.446;10.840;2022-09-12T16:00:57;1.98;;;1.15;;
31308;SDS011;17936;52.446;10.840;2022-09-12T16:03:24;1.50;;;1.20;;
31308;SDS011;17936;52.446;10.840;2022-09-12T16:05:58;2.28;;;1.15;;
31308;SDS011;17936;52.446;10.840;2022-09-12T16:08:25;2.50;;;1.20;;
31308;SDS011;17936;52.446;10.840;2022-09-12T16:10:53;3.92;;;1.20;;
31308;SDS011;17936;52.446;10.840;2022-09-12T16:13:21;2.55;;;1.35;;
31308;SDS011;17936;52.446;10.840;2022-09-12T16:15:47;2.28;;;1.13;;
31308;SDS011;17936;52.446;10.840;2022-09-12T16:18:13;2.50;;;1.23;;
31308;SDS011;17936;52.446;10.840;2022-09-12T16:20:39;2.35;;;1.30;;
31308;SDS011;17936;52.446;10.840;2022-09-12T16:23:05;2.72;;;1.20;;
31308;SDS011;17936;52.446;10.840;2022-09-12T16:25:31;2.03;;;1.20;;
31308;SDS011;17936;52.446;10.840;2022-09-12T16:27:57;1.90;;;1.08;;
31308;SDS011;17936;52.446;10.840;2022-09-12T16:30:25;2.42;;;1.45;;
31308;SDS011;17936;52.446;10.840;2022-09-12T16:32:51;4.03;;;1.40;;
31308;SDS011;17936;52.446;10.840;2022-09-12T16:35:16;2.47;;;1.55;;
31308;SDS011;17936;52.446;10.840;2022-09-12T16:37:42;2.42;;;1.65;;
31308;SDS011;17936;52.446;10.840;2022-09-12T16:40:08;6.80;;;1.40;;
31308;SDS011;17936;52.446;10.840;2022-09-12T16:42:33;2.10;;;1.25;;
31308;SDS011;17936;52.446;10.840;2022-09-12T16:44:59;4.88;;;1.63;;
31308;SDS011;17936;52.446;10.840;2022-09-12T16:47:25;1.98;;;1.00;;
31308;SDS011;17936;52.446;10.840;2022-09-12T16:49:50;3.65;;;1.50;;